Terminal Aerodrome Forecast
Issued by NWS

Home | Current Version | Previous Version | Text Only | Print | Product List | Glossary On
Versions: 1 2 3 4 5 6 7 8 9 10 11 12 13 14 15 16 17 18 19 20 21 22 23 24 25 26 27 28 29 30 31 32 33 34 35 36 37 38
655
FTUS41 KGYX 270536
TAFLEB
TAF
KLEB 270536Z 2706/2806 29007KT P6SM FEW050 FEW250
     FM271400 24010G18KT P6SM FEW050 FEW250
     FM271700 25012G24KT P6SM FEW050 FEW090
     FM272200 25009KT P6SM FEW050 SCT090=

USA.gov is the U.S. government's official web portal to all federal, state and local government web resources and services.